M/T Vemaoil Xi — 9HWD7 — position and weather

sailwx.info

Track history (hours):
 
Tides and Currents Weather Stations Pressure Air Temp Water Temp Dewpoint Dewpoint Depression Visibility Wind Speed Wind Dir Waves Ship Positions

M/T Vemaoil Xi

Last reported at 2016-Dec-06 11:33 UTC. Time now 2016-Dec-06 12:11 UTC.
Position N 35°50' E 014°36'.

Length 105 m; draft 6 m.

Type: Tanker. MMSI: 215631000.

Date/timePositionNaut miles runAvg speedWind from/ knotsBaromVisibWave heightAir tempDewpointWater temp
2016-Dec-06 11:33N 35°50' E 014°36'0 0.0
2016-Dec-06 10:16N 35°50' E 014°36'0 0.0
2016-Dec-06 09:21N 35°50' E 014°36'0 0.0
2016-Dec-06 08:33N 35°50' E 014°36'0 0.0
2016-Dec-06 07:33N 35°50' E 014°36'0 0.0
2016-Dec-06 06:33N 35°50' E 014°36'0 0.0
2016-Dec-06 05:27N 35°50' E 014°36'4 3.8
2016-Dec-06 04:31N 35°51' E 014°40'5 5.4
2016-Dec-06 03:33N 35°54' E 014°45'0 0.0
2016-Dec-06 02:33N 35°54' E 014°45'0 0.0
2016-Dec-05 23:33N 35°54' E 014°45'0 0.0
2016-Dec-05 22:32N 35°54' E 014°45'2 2.1
2016-Dec-05 21:33N 35°54' E 014°42'6 6.0
2016-Dec-05 20:33N 35°54' E 014°35'3 0.5
2016-Dec-05 14:29N 35°54' E 014°31'6 6.4
2016-Dec-05 13:33N 35°52' E 014°38'0 0.3
2016-Dec-05 12:32N 35°51' E 014°38'0 0.0
2016-Dec-05 11:32N 35°51' E 014°38'0 0.0
2016-Dec-05 10:25N 35°51' E 014°38'0 0.0
2016-Dec-05 09:32N 35°51' E 014°38'4 3.8
2016-Dec-05 08:33N 35°53' E 014°35'3 2.6
2016-Dec-05 07:33N 35°55' E 014°38'7 7.2
2016-Dec-05 06:33N 35°55' E 014°46'1 0.3
2016-Dec-05 03:24N 35°54' E 014°48'0 0.0
2016-Dec-05 02:33N 35°54' E 014°48'0 0.0
2016-Dec-05 01:30N 35°54' E 014°48'0 0.0
2016-Dec-05 00:33N 35°54' E 014°48'0 0.0
2016-Dec-04 23:33N 35°54' E 014°48'0 0.3
2016-Dec-04 22:32N 35°54' E 014°47'2 0.4
2016-Dec-04 17:25N 35°55' E 014°45'4 4.4
2016-Dec-04 16:32N 35°51' E 014°42'5 1.3
2016-Dec-04 12:26N 35°50' E 014°36'0 0.0
2016-Dec-04 10:26N 35°50' E 014°36'0 0.0
2016-Dec-04 09:23N 35°50' E 014°36'0 0.0
2016-Dec-04 06:11N 35°50' E 014°36'0 0.0
2016-Dec-04 03:29N 35°50' E 014°36'2 0.6
2016-Dec-04 00:32N 35°50' E 014°38'6 6.4
2016-Dec-03 23:33N 35°53' E 014°45'3 0.7
2016-Dec-03 19:26N 35°53' E 014°48'5 6.0
2016-Dec-03 18:33N 35°51' E 014°43'7 0.3
2016-Dec-02 20:19N 35°49' E 014°35'4 4.5
2016-Dec-02 19:32N 35°52' E 014°35'4 0.8
2016-Dec-02 15:09N 35°54' E 014°31'3 4.7
2016-Dec-02 14:33N 35°53' E 014°35'3 2.5
2016-Dec-02 13:33N 35°52' E 014°37'1 1.5
2016-Dec-02 12:31N 35°50' E 014°36'0 0.0
2016-Dec-02 11:31N 35°50' E 014°36'0 0.0
2016-Dec-02 10:28N 35°50' E 014°36'0 0.0
2016-Dec-02 09:16N 35°50' E 014°36'0 0.0
2016-Dec-02 08:28N 35°50' E 014°36'0 0.0
2016-Dec-02 07:31N 35°50' E 014°36'6 5.9
2016-Dec-02 06:33N 35°51' E 014°43'7 0.7
2016-Dec-01 19:33N 35°49' E 014°34'1 0.1
2016-Dec-01 07:31N 35°49' E 014°33'7 3.2
2016-Dec-01 05:25N 35°46' E 014°26'5 5.9
2016-Dec-01 04:33N 35°49' E 014°21'6 6.4
2016-Dec-01 03:33N 35°55' E 014°18'2 1.9
2016-Dec-01 02:33N 35°57' E 014°19'0 0.0
2016-Dec-01 01:33N 35°57' E 014°19'0 0.0
2016-Dec-01 00:33N 35°57' E 014°19'0 0.0
2016-Nov-30 23:33N 35°57' E 014°19'0 0.0
2016-Nov-30 22:33N 35°57' E 014°19'0 0.0
2016-Nov-30 21:33N 35°57' E 014°19'0 0.0
2016-Nov-30 20:33N 35°57' E 014°19'0 0.0
2016-Nov-30 19:33N 35°57' E 014°19'0 0.0
2016-Nov-30 18:33N 35°57' E 014°19'1 0.9
2016-Nov-30 17:33N 35°57' E 014°20'0 0.0
2016-Nov-30 16:33N 35°57' E 014°20'0 0.0
2016-Nov-30 15:33N 35°57' E 014°20'0 0.0
2016-Nov-30 14:33N 35°57' E 014°20'0 0.0
2016-Nov-30 13:33N 35°57' E 014°20'4 3.6
2016-Nov-30 12:33N 35°54' E 014°19'5 5.4
2016-Nov-30 11:33N 35°49' E 014°21'5 5.3
2016-Nov-30 10:33N 35°46' E 014°26'6 4.7
2016-Nov-30 09:16N 35°48' E 014°33'1 0.0
2016-Nov-29 14:31N 35°48' E 014°34'1 1.0
2016-Nov-29 13:28N 35°49' E 014°35'1 0.5
2016-Nov-29 11:33N 35°49' E 014°36'5 5.3
2016-Nov-29 10:33N 35°54' E 014°33'2 0.1
2016-Nov-28 17:20N 35°53' E 014°31'4 5.2
2016-Nov-28 16:33N 35°55' E 014°36'6 6.1
2016-Nov-28 15:31N 35°53' E 014°43'2 2.5
2016-Nov-28 14:32N 35°52' E 014°46'0 0.0
2016-Nov-28 13:33N 35°52' E 014°46'0 0.0
2016-Nov-28 12:33N 35°52' E 014°46'0 0.0
2016-Nov-28 10:26N 35°52' E 014°46'3 3.0
2016-Nov-28 09:33N 35°52' E 014°43'3 3.2
2016-Nov-28 08:33N 35°51' E 014°39'0 0.0
2016-Nov-28 07:33N 35°51' E 014°39'0 0.0
2016-Nov-28 06:32N 35°51' E 014°39'0 0.0
2016-Nov-28 05:33N 35°51' E 014°39'0 0.0
2016-Nov-28 04:33N 35°51' E 014°39'0 0.0
2016-Nov-28 03:33N 35°51' E 014°39'0 0.0
2016-Nov-28 02:33N 35°51' E 014°39'0 0.1
2016-Nov-28 01:33N 35°51' E 014°39'0 0.0
2016-Nov-28 00:33N 35°51' E 014°39'0 0.0
2016-Nov-27 23:33N 35°51' E 014°39'0 0.1
2016-Nov-27 22:33N 35°51' E 014°39'  
Track history (hours):
 
Tides and Currents Weather Stations Pressure Air Temp Water Temp Dewpoint Dewpoint Depression Visibility Wind Speed Wind Dir Waves Ship Positions

M/T Vemaoil Xi

Last reported at 2016-Dec-06 11:33 UTC. Time now 2016-Dec-06 12:11 UTC.
Position N 35°50' E 014°36'.

Length 105 m; draft 6 m.

Type: Tanker. MMSI: 215631000.

Date/timePositionNaut miles runAvg speedWind from/ knotsBaromVisibWave heightAir tempDewpointWater temp
2016-Dec-06 11:33N 35°50' E 014°36'0 0.0
2016-Dec-06 10:16N 35°50' E 014°36'0 0.0
2016-Dec-06 09:21N 35°50' E 014°36'0 0.0
2016-Dec-06 08:33N 35°50' E 014°36'0 0.0
2016-Dec-06 07:33N 35°50' E 014°36'0 0.0
2016-Dec-06 06:33N 35°50' E 014°36'0 0.0
2016-Dec-06 05:27N 35°50' E 014°36'4 3.8
2016-Dec-06 04:31N 35°51' E 014°40'5 5.4
2016-Dec-06 03:33N 35°54' E 014°45'0 0.0
2016-Dec-06 02:33N 35°54' E 014°45'0 0.0
2016-Dec-05 23:33N 35°54' E 014°45'0 0.0
2016-Dec-05 22:32N 35°54' E 014°45'2 2.1
2016-Dec-05 21:33N 35°54' E 014°42'6 6.0
2016-Dec-05 20:33N 35°54' E 014°35'3 0.5
2016-Dec-05 14:29N 35°54' E 014°31'6 6.4
2016-Dec-05 13:33N 35°52' E 014°38'0 0.3
2016-Dec-05 12:32N 35°51' E 014°38'0 0.0
2016-Dec-05 11:32N 35°51' E 014°38'0 0.0
2016-Dec-05 10:25N 35°51' E 014°38'0 0.0
2016-Dec-05 09:32N 35°51' E 014°38'4 3.8
2016-Dec-05 08:33N 35°53' E 014°35'3 2.6
2016-Dec-05 07:33N 35°55' E 014°38'7 7.2
2016-Dec-05 06:33N 35°55' E 014°46'1 0.3
2016-Dec-05 03:24N 35°54' E 014°48'0 0.0
2016-Dec-05 02:33N 35°54' E 014°48'0 0.0
2016-Dec-05 01:30N 35°54' E 014°48'0 0.0
2016-Dec-05 00:33N 35°54' E 014°48'0 0.0
2016-Dec-04 23:33N 35°54' E 014°48'0 0.3
2016-Dec-04 22:32N 35°54' E 014°47'2 0.4
2016-Dec-04 17:25N 35°55' E 014°45'4 4.4
2016-Dec-04 16:32N 35°51' E 014°42'5 1.3
2016-Dec-04 12:26N 35°50' E 014°36'0 0.0
2016-Dec-04 10:26N 35°50' E 014°36'0 0.0
2016-Dec-04 09:23N 35°50' E 014°36'0 0.0
2016-Dec-04 06:11N 35°50' E 014°36'0 0.0
2016-Dec-04 03:29N 35°50' E 014°36'2 0.6
2016-Dec-04 00:32N 35°50' E 014°38'6 6.4
2016-Dec-03 23:33N 35°53' E 014°45'3 0.7
2016-Dec-03 19:26N 35°53' E 014°48'5 6.0
2016-Dec-03 18:33N 35°51' E 014°43'7 0.3
2016-Dec-02 20:19N 35°49' E 014°35'4 4.5
2016-Dec-02 19:32N 35°52' E 014°35'4 0.8
2016-Dec-02 15:09N 35°54' E 014°31'3 4.7
2016-Dec-02 14:33N 35°53' E 014°35'3 2.5
2016-Dec-02 13:33N 35°52' E 014°37'1 1.5
2016-Dec-02 12:31N 35°50' E 014°36'0 0.0
2016-Dec-02 11:31N 35°50' E 014°36'0 0.0
2016-Dec-02 10:28N 35°50' E 014°36'0 0.0
2016-Dec-02 09:16N 35°50' E 014°36'0 0.0
2016-Dec-02 08:28N 35°50' E 014°36'0 0.0
2016-Dec-02 07:31N 35°50' E 014°36'6 5.9
2016-Dec-02 06:33N 35°51' E 014°43'7 0.7
2016-Dec-01 19:33N 35°49' E 014°34'1 0.1
2016-Dec-01 07:31N 35°49' E 014°33'7 3.2
2016-Dec-01 05:25N 35°46' E 014°26'5 5.9
2016-Dec-01 04:33N 35°49' E 014°21'6 6.4
2016-Dec-01 03:33N 35°55' E 014°18'2 1.9
2016-Dec-01 02:33N 35°57' E 014°19'0 0.0
2016-Dec-01 01:33N 35°57' E 014°19'0 0.0
2016-Dec-01 00:33N 35°57' E 014°19'0 0.0
2016-Nov-30 23:33N 35°57' E 014°19'0 0.0
2016-Nov-30 22:33N 35°57' E 014°19'0 0.0
2016-Nov-30 21:33N 35°57' E 014°19'0 0.0
2016-Nov-30 20:33N 35°57' E 014°19'0 0.0
2016-Nov-30 19:33N 35°57' E 014°19'0 0.0
2016-Nov-30 18:33N 35°57' E 014°19'1 0.9
2016-Nov-30 17:33N 35°57' E 014°20'0 0.0
2016-Nov-30 16:33N 35°57' E 014°20'0 0.0
2016-Nov-30 15:33N 35°57' E 014°20'0 0.0
2016-Nov-30 14:33N 35°57' E 014°20'0 0.0
2016-Nov-30 13:33N 35°57' E 014°20'4 3.6
2016-Nov-30 12:33N 35°54' E 014°19'5 5.4
2016-Nov-30 11:33N 35°49' E 014°21'5 5.3
2016-Nov-30 10:33N 35°46' E 014°26'6 4.7
2016-Nov-30 09:16N 35°48' E 014°33'1 0.0
2016-Nov-29 14:31N 35°48' E 014°34'1 1.0
2016-Nov-29 13:28N 35°49' E 014°35'1 0.5
2016-Nov-29 11:33N 35°49' E 014°36'5 5.3
2016-Nov-29 10:33N 35°54' E 014°33'2 0.1
2016-Nov-28 17:20N 35°53' E 014°31'4 5.2
2016-Nov-28 16:33N 35°55' E 014°36'6 6.1
2016-Nov-28 15:31N 35°53' E 014°43'2 2.5
2016-Nov-28 14:32N 35°52' E 014°46'0 0.0
2016-Nov-28 13:33N 35°52' E 014°46'0 0.0
2016-Nov-28 12:33N 35°52' E 014°46'0 0.0
2016-Nov-28 10:26N 35°52' E 014°46'3 3.0
2016-Nov-28 09:33N 35°52' E 014°43'3 3.2
2016-Nov-28 08:33N 35°51' E 014°39'0 0.0
2016-Nov-28 07:33N 35°51' E 014°39'0 0.0
2016-Nov-28 06:32N 35°51' E 014°39'0 0.0
2016-Nov-28 05:33N 35°51' E 014°39'0 0.0
2016-Nov-28 04:33N 35°51' E 014°39'0 0.0
2016-Nov-28 03:33N 35°51' E 014°39'0 0.0
2016-Nov-28 02:33N 35°51' E 014°39'0 0.1
2016-Nov-28 01:33N 35°51' E 014°39'0 0.0
2016-Nov-28 00:33N 35°51' E 014°39'0 0.0
2016-Nov-27 23:33N 35°51' E 014°39'0 0.1
2016-Nov-27 22:33N 35°51' E 014°39'  

Dump ship's entire track history